Berea, Ohio
Current Conditions -  °F | °C
As of 9:51 AM on Thursday 30 Oct 2014 (Local Time) from KCLE Reporting Station
Broken Clouds Broken Clouds  
Wind Chill: 41°   Ceiling: 4500
Heat Index: 44°   Visibility: 10mi
Dew Point: 43°   Wind: 6mph
Humidity: 96%   Direction: NA
Pressure: 30.16"   Gusts: NA
Location:  41.37°N, 81.85°W
Report Text: KCLE 301351Z VRB05KT 10SM SCT025 BKN045 07/06 A3016 RMK AO2 SLP215 T00670061 PNO $
Loading
Personal Weather Stations






























Interactive Weather Map
Tropical Storm Tracking
New forecast layout! Learn more

10-Day Weather Forecast

Advertisements
Track Severe Weather on mobile